Time;durP1;ratioP1;P1;durP2;ratioP2;P2;SDS_P1;SDS_P2;PMS_P1;PMS_P2;Temp;Humidity;BMP_temperature;BMP_pressure;BME280_temperature;BME280_humidity;BME280_pressure;Samples;Min_cycle;Max_cycle;Signal;HPM_P1;HPM_P2
2020/12/31 00:01:49;;;;;;;19.02;9.38;;;4.50;95.40;;;;;;5053356;28;20024;-92
2020/12/31 00:04:15;;;;;;;13.43;8.32;;;4.50;95.40;;;;;;5030667;28;20139;-91
2020/12/31 00:06:41;;;;;;;12.50;7.30;;;4.50;95.40;;;;;;5038825;28;20033;-91
2020/12/31 00:09:06;;;;;;;11.55;7.35;;;4.50;95.40;;;;;;5055874;28;20040;-92
2020/12/31 00:11:32;;;;;;;12.07;7.70;;;4.50;95.40;;;;;;5055916;28;20113;-92
2020/12/31 00:13:58;;;;;;;14.20;7.30;;;4.50;95.40;;;;;;5062945;28;20031;-92
2020/12/31 00:16:24;;;;;;;11.63;7.75;;;4.50;95.50;;;;;;5062142;28;20028;-90
2020/12/31 00:18:49;;;;;;;11.88;7.40;;;4.50;95.40;;;;;;5058440;28;20020;-92
2020/12/31 00:21:15;;;;;;;11.60;7.47;;;4.60;95.40;;;;;;5039239;28;20603;-91
2020/12/31 00:23:41;;;;;;;12.75;7.70;;;4.50;95.40;;;;;;5069218;28;20092;-92
2020/12/31 00:26:07;;;;;;;11.88;7.03;;;4.50;95.50;;;;;;5064494;28;20408;-92
2020/12/31 00:28:32;;;;;;;12.18;7.43;;;4.50;95.50;;;;;;5074373;28;20024;-92
2020/12/31 00:30:58;;;;;;;12.55;6.43;;;4.50;95.50;;;;;;5042305;28;20028;-91
2020/12/31 00:33:27;;;;;;;11.68;6.78;;;4.50;95.50;;;;;;5047766;28;20044;-91
2020/12/31 00:35:56;;;;;;;11.80;6.53;;;4.50;95.50;;;;;;5052582;28;20036;-91
2020/12/31 00:38:23;;;;;;;12.63;7.07;;;4.50;95.60;;;;;;5066782;28;20017;-89
2020/12/31 00:40:49;;;;;;;14.00;7.13;;;4.50;95.50;;;;;;5058456;28;20028;-91
2020/12/31 00:43:14;;;;;;;11.90;6.38;;;4.50;95.60;;;;;;5065258;28;20024;-92
2020/12/31 00:45:40;;;;;;;8.85;6.03;;;4.50;95.60;;;;;;5088493;28;20062;-91
2020/12/31 00:48:06;;;;;;;12.90;7.05;;;4.60;95.60;;;;;;5075033;28;20067;-91
2020/12/31 00:50:31;;;;;;;14.18;6.32;;;4.50;95.60;;;;;;5060582;28;20104;-93
2020/12/31 00:52:57;;;;;;;11.35;6.07;;;4.40;95.70;;;;;;5027646;28;20620;-91
2020/12/31 00:55:23;;;;;;;11.85;5.47;;;4.50;95.70;;;;;;5062477;28;20071;-86
2020/12/31 00:57:48;;;;;;;9.57;6.35;;;4.50;95.70;;;;;;5090801;28;20032;-92
2020/12/31 01:00:14;;;;;;;12.82;6.60;;;4.50;95.80;;;;;;5064999;28;20081;-91
2020/12/31 01:02:39;;;;;;;9.93;5.80;;;4.50;95.70;;;;;;5068954;28;20064;-91
2020/12/31 01:05:08;;;;;;;7.60;4.85;;;4.50;95.70;;;;;;5061772;28;20498;-91
2020/12/31 01:07:33;;;;;;;7.72;5.47;;;4.50;95.80;;;;;;5061223;28;20021;-92
2020/12/31 01:09:59;;;;;;;9.80;5.40;;;4.40;95.80;;;;;;5053628;28;20607;-90
2020/12/31 01:12:25;;;;;;;9.20;5.43;;;4.50;95.80;;;;;;5054754;28;20036;-88
2020/12/31 01:14:50;;;;;;;10.70;5.80;;;4.40;95.80;;;;;;5055036;28;20062;-92
2020/12/31 01:17:16;;;;;;;9.10;5.70;;;4.40;95.70;;;;;;5058827;28;20145;-90
2020/12/31 01:19:42;;;;;;;11.57;5.90;;;4.40;95.80;;;;;;5063083;28;20019;-92
2020/12/31 01:22:07;;;;;;;11.63;6.72;;;4.40;95.80;;;;;;5088573;28;20032;-91
2020/12/31 01:24:33;;;;;;;10.68;6.47;;;4.40;95.80;;;;;;5040359;28;20037;-91
2020/12/31 01:27:02;;;;;;;9.95;7.05;;;4.40;95.80;;;;;;5051448;28;20035;-92
2020/12/31 01:29:27;;;;;;;12.10;7.10;;;4.40;95.90;;;;;;5068450;28;20024;-91
2020/12/31 01:31:53;;;;;;;10.75;6.65;;;4.40;95.90;;;;;;5035552;28;20048;-92
2020/12/31 01:34:19;;;;;;;10.73;5.97;;;4.40;95.90;;;;;;5044135;28;20032;-91
2020/12/31 01:36:44;;;;;;;11.27;5.93;;;4.40;95.90;;;;;;5078947;28;20028;-92
2020/12/31 01:39:10;;;;;;;8.57;5.72;;;4.40;95.90;;;;;;5081612;28;20187;-92
2020/12/31 01:41:35;;;;;;;9.80;5.90;;;4.40;95.90;;;;;;5129703;28;20009;-88
2020/12/31 01:44:06;;;;;;;8.85;5.75;;;4.40;95.80;;;;;;5100673;28;20039;-86
2020/12/31 01:46:34;;;;;;;8.25;6.00;;;4.40;95.90;;;;;;5120330;28;20008;-84
2020/12/31 01:49:02;;;;;;;9.75;6.47;;;4.40;95.80;;;;;;5124236;28;20073;-88
2020/12/31 01:51:29;;;;;;;11.18;6.25;;;4.40;95.80;;;;;;5104195;28;20008;-90
2020/12/31 01:53:58;;;;;;;11.07;6.18;;;4.40;95.80;;;;;;5086955;28;20078;-88
2020/12/31 01:56:29;;;;;;;9.35;6.50;;;4.50;95.90;;;;;;5077065;28;20046;-92
2020/12/31 01:58:55;;;;;;;;;;;4.40;95.90;;;;;;5102766;28;20103;-92
2020/12/31 02:01:21;;;;;;;9.65;6.68;;;4.40;95.80;;;;;;5057041;28;19963;-91
2020/12/31 02:03:51;;;;;;;10.52;7.35;;;4.40;95.90;;;;;;5083116;28;20539;-91
2020/12/31 02:06:17;;;;;;;13.35;9.27;;;4.30;95.90;;;;;;5060249;28;20033;-91
2020/12/31 02:08:45;;;;;;;15.13;10.80;;;4.30;95.90;;;;;;5074012;28;20115;-92
2020/12/31 02:11:15;;;;;;;17.65;12.15;;;4.30;96.00;;;;;;5088224;28;20028;-91
2020/12/31 02:13:45;;;;;;;17.85;12.40;;;4.30;96.00;;;;;;5081898;28;20036;-90
2020/12/31 02:16:12;;;;;;;21.73;13.17;;;4.30;96.20;;;;;;5097602;28;20054;-91
2020/12/31 02:18:59;;;;;;;19.70;13.57;;;4.30;96.50;;;;;;5089274;28;20016;-90
2020/12/31 02:21:36;;;;;;;21.65;14.20;;;4.20;96.30;;;;;;5105917;28;20028;-90
2020/12/31 02:24:03;;;;;;;22.30;13.35;;;4.30;96.40;;;;;;5105254;28;20020;-90
2020/12/31 02:26:31;;;;;;;19.50;13.48;;;4.20;96.40;;;;;;5088433;28;20023;-90
2020/12/31 02:28:58;;;;;;;21.90;13.55;;;4.20;96.40;;;;;;5057351;28;20031;-88
2020/12/31 02:31:24;;;;;;;16.63;11.50;;;4.20;96.40;;;;;;5097033;28;20028;-90
2020/12/31 02:33:51;;;;;;;19.15;11.70;;;4.20;96.50;;;;;;5080165;28;20063;-90
2020/12/31 02:36:18;;;;;;;17.15;11.13;;;4.20;96.50;;;;;;5057686;28;20024;-89
2020/12/31 02:38:45;;;;;;;17.35;10.57;;;4.10;96.60;;;;;;5090276;28;20020;-89
2020/12/31 02:41:11;;;;;;;14.95;10.32;;;4.10;96.80;;;;;;5077202;28;20031;-89
2020/12/31 02:43:38;;;;;;;14.40;10.23;;;4.10;96.80;;;;;;5090956;28;20073;-89
2020/12/31 02:46:05;;;;;;;15.98;10.55;;;4.10;96.90;;;;;;5071310;28;20028;-89
2020/12/31 02:48:31;;;;;;;14.05;9.88;;;4.10;96.80;;;;;;5069266;28;20568;-89
2020/12/31 02:50:57;;;;;;;13.27;9.50;;;4.10;96.90;;;;;;5091274;28;20020;-90
2020/12/31 02:53:23;;;;;;;16.83;10.80;;;4.20;96.90;;;;;;5087133;28;20039;-91
2020/12/31 02:55:48;;;;;;;15.45;10.45;;;4.10;96.80;;;;;;5080867;28;20416;-88
2020/12/31 02:58:14;;;;;;;14.15;10.30;;;4.10;96.80;;;;;;5077184;28;20036;-89
2020/12/31 03:00:40;;;;;;;15.15;10.48;;;4.10;96.80;;;;;;5073653;28;20024;-89
2020/12/31 03:03:05;;;;;;;14.95;10.80;;;4.20;96.80;;;;;;5066313;28;20028;-88
2020/12/31 03:05:31;;;;;;;19.27;11.90;;;4.20;96.70;;;;;;5097624;28;20110;-90
2020/12/31 03:07:56;;;;;;;16.85;11.60;;;4.10;96.60;;;;;;5058868;28;20779;-90
2020/12/31 03:10:22;;;;;;;16.75;10.85;;;4.10;96.70;;;;;;5076232;28;20024;-88
2020/12/31 03:12:48;;;;;;;15.85;10.68;;;4.20;96.70;;;;;;5063927;28;20427;-88
2020/12/31 03:15:17;;;;;;;19.55;11.63;;;4.20;96.70;;;;;;5068684;28;20058;-88
2020/12/31 03:17:43;;;;;;;15.15;10.48;;;4.20;96.60;;;;;;5102766;28;20031;-88
2020/12/31 03:20:09;;;;;;;19.83;12.70;;;4.20;96.60;;;;;;5115078;28;20106;-89
2020/12/31 03:22:34;;;;;;;16.95;12.52;;;4.30;96.60;;;;;;5063704;28;20061;-88
2020/12/31 03:25:00;;;;;;;20.70;11.60;;;4.30;96.50;;;;;;5048744;28;20038;-89
2020/12/31 03:27:26;;;;;;;12.75;9.10;;;4.30;96.50;;;;;;5088559;28;20056;-89
2020/12/31 03:29:52;;;;;;;12.20;8.38;;;4.30;96.60;;;;;;5063727;28;20072;-90
2020/12/31 03:32:18;;;;;;;12.90;8.73;;;4.30;96.60;;;;;;5096733;28;20103;-88
2020/12/31 03:34:45;;;;;;;11.60;8.13;;;4.40;96.50;;;;;;5065576;28;20033;-90
2020/12/31 03:37:10;;;;;;;13.07;7.35;;;4.40;96.50;;;;;;5086916;28;20059;-89
2020/12/31 03:39:36;;;;;;;12.77;8.52;;;4.40;96.40;;;;;;5085021;28;20078;-88
2020/12/31 03:42:02;;;;;;;11.02;7.13;;;4.40;96.30;;;;;;5065054;28;20024;-89
2020/12/31 03:44:28;;;;;;;9.50;6.72;;;4.30;96.30;;;;;;5083345;28;20074;-90
2020/12/31 03:46:53;;;;;;;10.05;6.80;;;4.40;96.40;;;;;;5070358;28;20395;-88
2020/12/31 03:49:19;;;;;;;11.07;7.95;;;4.40;96.30;;;;;;5056228;28;20028;-87
2020/12/31 03:51:45;;;;;;;10.23;6.70;;;4.40;96.20;;;;;;5069652;28;20020;-89
2020/12/31 03:54:10;;;;;;;9.20;6.30;;;4.40;96.30;;;;;;5055660;28;20037;-89
2020/12/31 03:56:37;;;;;;;9.75;6.65;;;4.30;96.30;;;;;;5086264;28;20036;-90
2020/12/31 03:59:06;;;;;;;9.45;6.53;;;4.40;96.30;;;;;;5058789;28;20024;-89
2020/12/31 04:01:33;;;;;;;8.23;5.93;;;4.40;96.20;;;;;;5057512;28;20016;-88
2020/12/31 04:03:59;;;;;;;8.45;5.88;;;4.50;96.40;;;;;;5035220;28;20111;-89
2020/12/31 04:06:25;;;;;;;10.88;6.75;;;4.40;96.50;;;;;;5064527;28;20020;-88
2020/12/31 04:08:51;;;;;;;8.73;6.40;;;4.40;96.00;;;;;;5055700;28;20086;-89
2020/12/31 04:11:16;;;;;;;9.05;6.22;;;4.40;96.10;;;;;;5075823;28;20030;-90
2020/12/31 04:13:42;;;;;;;9.73;6.07;;;4.40;96.10;;;;;;5059169;28;20036;-90
2020/12/31 04:16:07;;;;;;;11.80;6.07;;;4.40;96.00;;;;;;5038430;28;20060;-91
2020/12/31 04:18:33;;;;;;;9.63;6.50;;;4.40;96.10;;;;;;5049349;28;20468;-91
2020/12/31 04:20:59;;;;;;;10.02;6.53;;;4.40;96.00;;;;;;5060807;28;20028;-88
2020/12/31 04:23:25;;;;;;;8.25;5.53;;;4.50;96.10;;;;;;5084756;28;20063;-90
2020/12/31 04:25:51;;;;;;;10.43;6.53;;;4.50;96.20;;;;;;5072761;28;20048;-90
2020/12/31 04:28:17;;;;;;;10.13;5.82;;;4.50;96.00;;;;;;5068612;28;20036;-90
2020/12/31 04:30:46;;;;;;;8.77;6.10;;;4.50;96.00;;;;;;5063654;28;20031;-89
2020/12/31 04:33:12;;;;;;;10.38;6.53;;;4.50;96.00;;;;;;5101514;28;20056;-90
2020/12/31 04:35:38;;;;;;;9.82;5.38;;;4.40;95.90;;;;;;5078325;28;20023;-90
2020/12/31 04:38:04;;;;;;;8.05;5.05;;;4.40;96.00;;;;;;5085214;28;20442;-89
2020/12/31 04:40:31;;;;;;;9.90;6.75;;;4.40;96.10;;;;;;5090726;28;20016;-89
2020/12/31 04:42:57;;;;;;;9.13;6.13;;;4.50;95.90;;;;;;5095393;28;20200;-91
2020/12/31 04:45:25;;;;;;;12.20;6.07;;;4.40;95.90;;;;;;5060876;28;20167;-89
2020/12/31 04:48:09;;;;;;;9.60;6.13;;;4.50;96.00;;;;;;5067298;28;20076;-90
2020/12/31 04:50:41;;;;;;;8.80;5.85;;;4.40;95.80;;;;;;5112542;28;20024;-90
2020/12/31 04:53:09;;;;;;;10.38;6.55;;;4.40;96.00;;;;;;5094814;28;20023;-90
2020/12/31 04:55:45;;;;;;;10.18;6.65;;;4.40;95.80;;;;;;5113289;28;20110;-89
2020/12/31 04:58:13;;;;;;;10.43;6.78;;;4.50;95.90;;;;;;5113359;28;20063;-89
2020/12/31 05:00:40;;;;;;;9.32;6.40;;;4.40;95.80;;;;;;5067793;28;20029;-90
2020/12/31 05:03:06;;;;;;;10.23;6.43;;;4.30;95.80;;;;;;5112633;28;20751;-89
2020/12/31 05:05:33;;;;;;;10.18;7.07;;;4.30;95.90;;;;;;5082882;28;20514;-90
2020/12/31 05:08:00;;;;;;;10.77;6.03;;;4.30;95.90;;;;;;5054483;28;20059;-90
2020/12/31 05:10:26;;;;;;;10.18;7.05;;;4.30;95.90;;;;;;5055412;28;20039;-89
2020/12/31 05:13:01;;;;;;;9.95;6.05;;;4.30;95.90;;;;;;5072818;28;20139;-90
2020/12/31 05:15:47;;;;;;;8.35;5.97;;;4.20;96.00;;;;;;5039328;28;20036;-90
2020/12/31 05:18:26;;;;;;;11.48;6.85;;;4.30;96.00;;;;;;5076819;28;20119;-90
2020/12/31 05:20:54;;;;;;;11.63;6.28;;;4.30;96.00;;;;;;5076333;28;20021;-90
2020/12/31 05:23:22;;;;;;;10.30;6.22;;;4.20;95.90;;;;;;5072980;28;20046;-91
2020/12/31 05:25:48;;;;;;;9.63;5.88;;;4.20;96.00;;;;;;5119491;28;20034;-87
2020/12/31 05:28:24;;;;;;;9.52;6.00;;;4.20;95.90;;;;;;5116548;27;20016;-89
2020/12/31 05:30:51;;;;;;;10.68;6.15;;;4.20;95.90;;;;;;5110109;27;20033;-89
2020/12/31 05:33:30;;;;;;;14.52;6.47;;;4.20;96.00;;;;;;5138174;27;20034;-90
2020/12/31 05:36:26;;;;;;;9.85;6.38;;;4.20;96.00;;;;;;5103240;28;20024;-85
2020/12/31 05:38:55;;;;;;;10.75;5.95;;;4.10;95.90;;;;;;5120252;27;20028;-85
2020/12/31 05:41:24;;;;;;;9.55;6.18;;;4.10;95.90;;;;;;5119563;28;20028;-89
2020/12/31 05:43:55;;;;;;;10.15;6.07;;;4.00;96.00;;;;;;5086810;28;20028;-88
2020/12/31 05:46:21;;;;;;;9.05;5.13;;;4.10;96.00;;;;;;5082754;28;20027;-89
2020/12/31 05:49:00;;;;;;;12.13;5.68;;;4.00;96.10;;;;;;5098559;28;20020;-90
2020/12/31 05:51:30;;;;;;;10.57;5.88;;;4.10;96.10;;;;;;5069911;28;20810;-90
2020/12/31 05:54:06;;;;;;;10.57;5.07;;;4.10;96.00;;;;;;5093739;28;20024;-91
2020/12/31 05:56:33;;;;;;;11.02;4.68;;;4.00;95.90;;;;;;5081948;28;20036;-89
2020/12/31 05:59:04;;;;;;;8.60;5.28;;;4.00;96.00;;;;;;5066998;28;20053;-91
2020/12/31 06:01:33;;;;;;;7.90;4.70;;;4.00;96.00;;;;;;5056555;28;20116;-90
2020/12/31 06:04:17;;;;;;;7.43;4.63;;;4.00;96.10;;;;;;5078195;28;20020;-91
2020/12/31 06:06:49;;;;;;;9.20;5.03;;;4.10;96.10;;;;;;5099788;28;20020;-89
2020/12/31 06:09:26;;;;;;;6.35;4.60;;;4.10;96.00;;;;;;5088573;28;20098;-90
2020/12/31 06:11:57;;;;;;;13.27;5.80;;;4.10;96.00;;;;;;5056169;28;20158;-89
2020/12/31 06:14:29;;;;;;;6.60;4.22;;;4.10;95.90;;;;;;5097497;28;20035;-87
2020/12/31 06:16:57;;;;;;;8.15;5.20;;;4.20;96.00;;;;;;5070034;28;20053;-87
2020/12/31 06:19:32;;;;;;;9.70;5.30;;;4.20;95.90;;;;;;5088830;28;20052;-89
2020/12/31 06:22:05;;;;;;;9.70;5.68;;;4.10;95.90;;;;;;5078905;28;20448;-90
2020/12/31 06:24:41;;;;;;;11.30;5.78;;;4.10;95.80;;;;;;5097320;28;20146;-91
2020/12/31 06:27:15;;;;;;;10.52;5.68;;;4.10;95.80;;;;;;5094456;28;20028;-91
2020/12/31 06:29:40;;;;;;;8.27;5.13;;;4.00;95.90;;;;;;5077768;28;20033;-91
2020/12/31 06:32:17;;;;;;;9.82;5.45;;;4.00;95.90;;;;;;5089681;28;20051;-91
2020/12/31 06:34:44;;;;;;;7.93;5.07;;;4.00;95.90;;;;;;5088254;28;20365;-90
2020/12/31 06:37:11;;;;;;;13.63;5.35;;;4.00;96.00;;;;;;5077719;28;20028;-91
2020/12/31 06:39:38;;;;;;;8.55;5.50;;;4.00;95.90;;;;;;5090176;28;20035;-89
2020/12/31 06:42:04;;;;;;;10.43;4.78;;;3.90;96.00;;;;;;5077045;28;20056;-91
2020/12/31 06:44:31;;;;;;;8.07;4.97;;;3.90;95.90;;;;;;5057148;28;20074;-90
2020/12/31 06:46:57;;;;;;;9.65;5.00;;;3.90;95.90;;;;;;5069555;28;20491;-89
2020/12/31 06:49:23;;;;;;;9.77;4.70;;;3.90;96.00;;;;;;5076719;28;20162;-91
2020/12/31 06:51:48;;;;;;;8.90;5.47;;;3.90;95.90;;;;;;5087152;28;20383;-91
2020/12/31 06:54:28;;;;;;;7.43;4.40;;;4.00;96.00;;;;;;5077892;28;20532;-90
2020/12/31 06:56:54;;;;;;;9.38;4.53;;;4.00;95.90;;;;;;5077209;28;20035;-91
2020/12/31 06:59:35;;;;;;;6.80;3.78;;;4.00;95.90;;;;;;5041855;28;20032;-92
2020/12/31 07:02:11;;;;;;;7.68;4.30;;;4.10;95.90;;;;;;5094745;28;20024;-91
2020/12/31 07:04:41;;;;;;;6.95;4.13;;;4.10;95.90;;;;;;5109290;28;20025;-90
2020/12/31 07:07:27;;;;;;;8.43;4.00;;;4.10;95.70;;;;;;5057073;28;20029;-90
2020/12/31 07:09:59;;;;;;;6.78;3.85;;;4.10;95.70;;;;;;5090991;28;20048;-90
2020/12/31 07:12:34;;;;;;;9.43;3.70;;;4.10;95.70;;;;;;5105091;28;20027;-90
2020/12/31 07:15:01;;;;;;;6.32;3.35;;;4.10;95.60;;;;;;5100386;28;20066;-86
2020/12/31 07:17:44;;;;;;;4.93;3.22;;;4.10;95.50;;;;;;5100004;28;20031;-90
2020/12/31 07:20:12;;;;;;;6.15;3.00;;;4.10;95.60;;;;;;5070876;28;20024;-90
2020/12/31 07:22:39;;;;;;;5.43;3.00;;;4.10;95.40;;;;;;5075934;28;20412;-90
2020/12/31 07:25:07;;;;;;;5.80;2.78;;;4.00;95.50;;;;;;5089428;28;20050;-89
2020/12/31 07:27:37;;;;;;;8.95;3.35;;;4.10;95.50;;;;;;5076531;28;20084;-90
2020/12/31 07:30:08;;;;;;;7.60;3.30;;;4.10;95.50;;;;;;5065722;28;20024;-85
2020/12/31 07:32:49;;;;;;;8.02;3.05;;;4.10;95.50;;;;;;5071388;28;20040;-90
2020/12/31 07:35:39;;;;;;;4.93;3.05;;;4.10;95.50;;;;;;5058833;28;20032;-91
2020/12/31 07:38:13;;;;;;;6.85;2.95;;;4.20;95.50;;;;;;5075393;28;20052;-89
2020/12/31 07:40:42;;;;;;;5.65;3.30;;;4.20;95.60;;;;;;5074623;28;20532;-91
2020/12/31 07:43:12;;;;;;;4.28;2.70;;;4.20;95.40;;;;;;5075049;28;20028;-90
2020/12/31 07:45:38;;;;;;;5.78;3.13;;;4.20;95.60;;;;;;5076863;28;20047;-91
2020/12/31 07:48:04;;;;;;;5.57;2.40;;;4.30;95.80;;;;;;5062556;28;20115;-86
2020/12/31 07:50:30;;;;;;;5.30;3.00;;;4.30;95.80;;;;;;5070365;28;20028;-91
2020/12/31 07:52:59;;;;;;;6.97;2.97;;;4.40;95.80;;;;;;5074510;28;20028;-91
2020/12/31 07:55:24;;;;;;;4.20;2.42;;;4.40;95.70;;;;;;5046875;28;20035;-91
2020/12/31 07:57:50;;;;;;;5.53;2.60;;;4.40;95.70;;;;;;5064301;28;20029;-91
2020/12/31 08:00:19;;;;;;;4.57;2.67;;;4.40;95.60;;;;;;5058555;28;20028;-89
2020/12/31 08:02:49;;;;;;;4.30;2.42;;;4.40;95.60;;;;;;5068834;28;20020;-88
2020/12/31 08:05:17;;;;;;;3.97;2.22;;;4.40;95.40;;;;;;5065633;28;20036;-90
2020/12/31 08:07:43;;;;;;;3.85;2.30;;;4.40;95.30;;;;;;5066696;28;20455;-89
2020/12/31 08:10:11;;;;;;;5.22;2.20;;;4.40;95.30;;;;;;5065046;28;20055;-88
2020/12/31 08:12:41;;;;;;;3.60;2.00;;;4.40;95.50;;;;;;5078085;28;20020;-90
2020/12/31 08:15:07;;;;;;;4.35;2.80;;;4.40;95.60;;;;;;5070986;28;20035;-91
2020/12/31 08:17:33;;;;;;;3.22;1.95;;;4.40;95.60;;;;;;5066535;28;20597;-91
2020/12/31 08:20:01;;;;;;;4.82;2.58;;;4.40;95.60;;;;;;5059608;28;20069;-89
2020/12/31 08:22:40;;;;;;;5.03;2.75;;;4.50;95.70;;;;;;5082950;28;20024;-91
2020/12/31 08:25:11;;;;;;;5.30;2.72;;;4.50;95.50;;;;;;5091656;28;20459;-89
2020/12/31 08:27:40;;;;;;;3.55;2.20;;;4.50;95.60;;;;;;5079472;28;20020;-90
2020/12/31 08:30:10;;;;;;;3.63;2.28;;;4.50;95.70;;;;;;5055397;28;20028;-90
2020/12/31 08:32:42;;;;;;;4.90;2.40;;;4.50;95.70;;;;;;5069174;28;20044;-90
2020/12/31 08:35:11;;;;;;;6.80;2.50;;;4.50;95.70;;;;;;5093026;28;20039;-91
2020/12/31 08:37:38;;;;;;;5.53;2.60;;;4.50;95.70;;;;;;5093397;28;20527;-90
2020/12/31 08:40:04;;;;;;;5.00;2.60;;;4.50;95.70;;;;;;5075512;28;20555;-91
2020/12/31 08:42:34;;;;;;;4.18;2.33;;;4.60;95.80;;;;;;5058161;28;20032;-91
2020/12/31 08:45:00;;;;;;;6.22;3.03;;;4.50;95.80;;;;;;5093642;28;20077;-91
2020/12/31 08:47:28;;;;;;;5.07;2.78;;;4.60;95.30;;;;;;5093377;28;20434;-90
2020/12/31 08:49:56;;;;;;;4.30;2.47;;;4.50;95.40;;;;;;5059411;28;20077;-91
2020/12/31 08:52:26;;;;;;;4.65;2.50;;;4.50;95.60;;;;;;5068222;28;20030;-90
2020/12/31 08:55:11;;;;;;;4.13;2.50;;;4.50;95.60;;;;;;5075048;28;20115;-92
2020/12/31 08:57:37;;;;;;;4.53;2.90;;;4.50;95.40;;;;;;5062015;28;20492;-93
2020/12/31 09:00:05;;;;;;;5.00;2.78;;;4.50;95.60;;;;;;5089443;28;20028;-93
2020/12/31 09:02:31;;;;;;;3.50;2.10;;;4.50;95.70;;;;;;5062372;28;20021;-92
2020/12/31 09:05:17;;;;;;;4.13;2.20;;;4.60;95.80;;;;;;5046813;28;20165;-92
2020/12/31 09:07:42;;;;;;;3.20;2.20;;;4.60;95.80;;;;;;5080166;28;20024;-92
2020/12/31 09:10:13;;;;;;;3.53;2.30;;;4.60;95.90;;;;;;5056910;28;20135;-93
2020/12/31 09:12:38;;;;;;;3.20;2.10;;;4.70;95.90;;;;;;5075289;27;20027;-89
2020/12/31 09:15:05;;;;;;;3.22;1.92;;;4.70;96.00;;;;;;5103785;28;20069;-90
2020/12/31 09:17:32;;;;;;;5.38;2.80;;;4.70;96.00;;;;;;5076015;27;20028;-90
2020/12/31 09:19:58;;;;;;;5.40;3.40;;;4.70;95.90;;;;;;5115336;28;20004;-88
2020/12/31 09:22:24;;;;;;;6.60;3.80;;;4.70;95.70;;;;;;5091677;28;20104;-90
2020/12/31 09:24:51;;;;;;;4.90;3.00;;;4.70;95.70;;;;;;5071326;28;20039;-91
2020/12/31 09:27:24;;;;;;;6.50;3.30;;;4.70;95.80;;;;;;5094619;28;20027;-88
2020/12/31 09:29:59;;;;;;;4.75;2.80;;;4.70;95.80;;;;;;5110731;28;20007;-89
2020/12/31 09:32:26;;;;;;;4.95;3.05;;;4.70;95.90;;;;;;5072747;28;20488;-95
2020/12/31 09:34:52;;;;;;;4.65;3.10;;;4.70;95.80;;;;;;5112910;28;20028;-94
2020/12/31 09:37:18;;;;;;;5.60;3.40;;;4.70;95.90;;;;;;5060107;28;20077;-86
2020/12/31 09:39:44;;;;;;;6.88;3.78;;;4.70;95.80;;;;;;5074761;28;20024;-92
2020/12/31 09:42:10;;;;;;;5.43;3.58;;;4.70;95.50;;;;;;5055370;28;20054;-91
2020/12/31 09:44:37;;;;;;;5.47;3.67;;;4.60;95.50;;;;;;5098843;28;20463;-91
2020/12/31 09:47:03;;;;;;;4.90;3.35;;;4.60;95.40;;;;;;5070993;28;20031;-91
2020/12/31 09:49:28;;;;;;;7.53;4.03;;;4.50;95.30;;;;;;5050289;28;20024;-94
2020/12/31 09:51:58;;;;;;;5.10;3.47;;;4.40;94.90;;;;;;5055219;28;20024;-95
2020/12/31 09:54:24;;;;;;;5.53;3.83;;;4.40;95.20;;;;;;5052060;28;20063;-94
2020/12/31 09:56:49;;;;;;;7.43;4.50;;;4.40;95.20;;;;;;5062260;28;20461;-95
2020/12/31 09:59:15;;;;;;;5.80;3.92;;;4.30;95.00;;;;;;5073689;28;20032;-93
2020/12/31 10:01:41;;;;;;;5.97;3.60;;;4.40;95.40;;;;;;5057686;28;20507;-92
2020/12/31 10:04:06;;;;;;;6.00;3.80;;;4.40;95.30;;;;;;5053120;28;20036;-93
2020/12/31 10:06:32;;;;;;;4.63;3.15;;;4.30;95.20;;;;;;5062392;28;20032;-93
2020/12/31 10:08:57;;;;;;;4.05;2.83;;;4.30;95.10;;;;;;5060885;28;20448;-90
2020/12/31 10:11:23;;;;;;;3.83;2.60;;;4.20;95.10;;;;;;5064839;28;20028;-92
2020/12/31 10:13:49;;;;;;;4.07;2.50;;;4.30;95.30;;;;;;5036234;28;20435;-94
2020/12/31 10:16:14;;;;;;;5.00;2.88;;;4.30;95.40;;;;;;5041882;28;20055;-94
2020/12/31 10:18:40;;;;;;;7.20;3.65;;;4.30;95.40;;;;;;5091832;28;20027;-96
2020/12/31 10:21:06;;;;;;;5.35;2.80;;;4.30;95.50;;;;;;5066595;28;20032;-92
2020/12/31 10:23:32;;;;;;;4.47;2.75;;;4.40;95.70;;;;;;5065844;28;20023;-95
2020/12/31 10:25:57;;;;;;;4.82;3.00;;;4.40;95.70;;;;;;5038100;28;20040;-92
2020/12/31 10:28:23;;;;;;;6.57;2.50;;;4.50;95.80;;;;;;5063083;28;20090;-89
2020/12/31 10:30:49;;;;;;;4.05;2.30;;;4.50;95.80;;;;;;5055919;28;20544;-91
2020/12/31 10:33:15;;;;;;;5.03;2.70;;;4.60;95.90;;;;;;5073504;28;20081;-90
2020/12/31 10:35:41;;;;;;;4.18;2.40;;;4.60;95.90;;;;;;5062810;28;20767;-92
2020/12/31 10:38:07;;;;;;;5.38;2.65;;;4.70;96.00;;;;;;5050329;28;20028;-92
2020/12/31 10:40:32;;;;;;;4.68;2.90;;;4.80;96.00;;;;;;5060797;28;20036;-94
2020/12/31 10:42:59;;;;;;;4.50;2.70;;;4.80;96.00;;;;;;5072903;28;20074;-89
2020/12/31 10:45:25;;;;;;;5.03;2.78;;;4.80;96.00;;;;;;5062546;28;20510;-94
2020/12/31 10:47:50;;;;;;;4.57;2.75;;;4.80;96.00;;;;;;5067654;28;20037;-93
2020/12/31 10:50:16;;;;;;;4.95;2.65;;;4.80;96.00;;;;;;5062304;28;20029;-94
2020/12/31 10:52:41;;;;;;;4.90;3.20;;;4.90;96.10;;;;;;5065310;28;20028;-92
2020/12/31 10:55:07;;;;;;;5.30;3.30;;;4.90;96.10;;;;;;5093359;28;20070;-94
2020/12/31 10:57:33;;;;;;;5.47;3.13;;;4.90;96.40;;;;;;5057842;28;20037;-94
2020/12/31 10:59:58;;;;;;;3.80;2.60;;;4.90;96.10;;;;;;5064590;28;20028;-93
2020/12/31 11:02:24;;;;;;;4.97;2.67;;;5.00;96.20;;;;;;5077093;28;20028;-95
2020/12/31 11:04:49;;;;;;;5.72;3.20;;;5.00;96.20;;;;;;5095600;28;20491;-95
2020/12/31 11:07:15;;;;;;;6.03;3.35;;;5.00;96.20;;;;;;5041151;28;20096;-94
2020/12/31 11:09:41;;;;;;;5.80;3.15;;;5.10;96.30;;;;;;5050500;28;20039;-92
2020/12/31 11:12:06;;;;;;;5.95;3.35;;;5.10;96.30;;;;;;5060554;28;20032;-94
2020/12/31 11:14:32;;;;;;;6.30;3.88;;;5.10;96.30;;;;;;5060424;28;20024;-95
2020/12/31 11:16:57;;;;;;;5.22;3.53;;;5.10;96.30;;;;;;5060600;28;20434;-94
2020/12/31 11:19:24;;;;;;;6.13;3.55;;;5.10;96.20;;;;;;5061500;28;20024;-96
2020/12/31 11:21:50;;;;;;;7.13;3.80;;;5.10;96.30;;;;;;5058177;28;20036;-92
2020/12/31 11:24:16;;;;;;;5.45;3.13;;;5.20;96.30;;;;;;5042091;28;20054;-94
2020/12/31 11:26:43;;;;;;;5.20;3.15;;;5.20;96.40;;;;;;5053654;28;20047;-92
2020/12/31 11:29:09;;;;;;;5.95;3.70;;;5.20;96.40;;;;;;5067294;28;20028;-94
2020/12/31 11:31:35;;;;;;;6.03;3.83;;;5.20;96.40;;;;;;5076784;28;20032;-96
2020/12/31 11:34:00;;;;;;;7.05;4.45;;;5.30;96.40;;;;;;5049530;28;20480;-93
2020/12/31 11:36:27;;;;;;;8.90;6.07;;;5.30;96.30;;;;;;5058310;28;20055;-92
2020/12/31 11:38:53;;;;;;;7.70;5.20;;;5.30;95.90;;;;;;5053636;28;20016;-93
2020/12/31 11:41:19;;;;;;;7.75;5.13;;;5.20;96.20;;;;;;5067931;28;20021;-94
2020/12/31 11:43:45;;;;;;;8.60;5.68;;;5.30;96.30;;;;;;5067190;28;20485;-90
2020/12/31 11:46:12;;;;;;;7.03;4.53;;;5.30;96.20;;;;;;5069540;28;20062;-93
2020/12/31 11:48:38;;;;;;;9.02;5.88;;;5.30;96.30;;;;;;5080661;28;20047;-93
2020/12/31 11:51:05;;;;;;;8.50;5.22;;;5.30;95.50;;;;;;5054799;28;20420;-90
2020/12/31 11:53:31;;;;;;;8.85;5.20;;;5.30;95.50;;;;;;5067631;28;20021;-90
2020/12/31 11:56:00;;;;;;;7.63;4.78;;;5.20;95.50;;;;;;5054816;28;20028;-93
2020/12/31 11:58:26;;;;;;;7.97;5.07;;;5.20;95.40;;;;;;5068754;28;20133;-93
2020/12/31 12:00:52;;;;;;;8.02;5.63;;;5.20;95.40;;;;;;5085241;28;20074;-93
2020/12/31 12:03:17;;;;;;;7.78;5.03;;;5.20;95.50;;;;;;5054593;28;20035;-93
2020/12/31 12:05:43;;;;;;;8.52;4.97;;;5.20;95.50;;;;;;5060597;28;20035;-91
2020/12/31 12:08:09;;;;;;;7.35;5.25;;;5.30;95.70;;;;;;5060368;28;20028;-91
2020/12/31 12:10:35;;;;;;;7.15;4.95;;;5.20;95.10;;;;;;5069900;28;20032;-88
2020/12/31 12:13:00;;;;;;;8.43;5.85;;;5.30;95.20;;;;;;5078421;28;20098;-94
2020/12/31 12:15:26;;;;;;;6.90;4.90;;;5.20;94.90;;;;;;5093230;28;20075;-94
2020/12/31 12:17:52;;;;;;;6.72;4.80;;;5.20;95.30;;;;;;5080579;28;20066;-94
2020/12/31 12:20:18;;;;;;;7.10;4.72;;;5.20;95.20;;;;;;5103440;28;20028;-92
2020/12/31 12:22:44;;;;;;;6.00;4.15;;;5.20;95.50;;;;;;5109768;28;20581;-94
2020/12/31 12:25:10;;;;;;;6.30;4.20;;;5.30;95.60;;;;;;5067762;28;20032;-95
2020/12/31 12:27:36;;;;;;;6.45;4.07;;;5.30;95.60;;;;;;5059805;28;20469;-92
2020/12/31 12:30:09;;;;;;;6.90;3.78;;;5.40;95.70;;;;;;5086117;28;20049;-95
2020/12/31 12:32:35;;;;;;;6.38;3.80;;;5.40;95.80;;;;;;5101170;28;20469;-93
2020/12/31 12:35:01;;;;;;;8.07;5.00;;;5.50;95.80;;;;;;5081172;28;20029;-94
2020/12/31 12:37:27;;;;;;;8.00;5.78;;;5.50;95.70;;;;;;5088929;28;20476;-93
2020/12/31 12:39:52;;;;;;;9.32;6.43;;;5.50;95.50;;;;;;5079756;28;20037;-94
2020/12/31 12:42:18;;;;;;;7.60;5.30;;;5.50;95.40;;;;;;5040064;28;20029;-94
2020/12/31 12:44:44;;;;;;;8.20;5.13;;;5.50;95.60;;;;;;5041306;28;20032;-95
2020/12/31 12:47:09;;;;;;;7.90;5.28;;;5.50;95.30;;;;;;5057218;28;20741;-93
2020/12/31 12:49:35;;;;;;;7.15;5.10;;;5.40;95.10;;;;;;5071736;28;20024;-94
2020/12/31 12:52:04;;;;;;;8.13;4.88;;;5.40;95.30;;;;;;5076277;28;20262;-95
2020/12/31 12:54:29;;;;;;;6.57;4.90;;;5.40;95.30;;;;;;5057817;28;20373;-95
2020/12/31 12:56:55;;;;;;;6.05;4.45;;;5.40;95.20;;;;;;5082941;28;20092;-93